sensor_id;sensor_type;location;lat;lon;timestamp;temperature;humidity
55492;DHT22;41354;52.990;6.878;2022-07-01T00:00:11;14.80;99.90
55492;DHT22;41354;52.990;6.878;2022-07-01T00:02:37;14.80;99.90
55492;DHT22;41354;52.990;6.878;2022-07-01T00:05:03;14.80;99.90
55492;DHT22;41354;52.990;6.878;2022-07-01T00:07:28;14.80;99.90
55492;DHT22;41354;52.990;6.878;2022-07-01T00:09:54;14.80;99.90
55492;DHT22;41354;52.990;6.878;2022-07-01T00:12:19;14.80;99.90
55492;DHT22;41354;52.990;6.878;2022-07-01T00:14:45;14.90;99.90
55492;DHT22;41354;52.990;6.878;2022-07-01T00:17:10;14.80;99.90
55492;DHT22;41354;52.990;6.878;2022-07-01T00:19:36;14.80;99.90
55492;DHT22;41354;52.990;6.878;2022-07-01T00:22:02;14.90;99.90
55492;DHT22;41354;52.990;6.878;2022-07-01T00:24:28;14.80;99.90
55492;DHT22;41354;52.990;6.878;2022-07-01T00:26:53;14.90;99.90
55492;DHT22;41354;52.990;6.878;2022-07-01T00:29:19;14.90;99.90
55492;DHT22;41354;52.990;6.878;2022-07-01T00:31:45;14.90;99.90
55492;DHT22;41354;52.990;6.878;2022-07-01T00:34:10;14.90;99.90
55492;DHT22;41354;52.990;6.878;2022-07-01T00:36:36;14.90;99.90
55492;DHT22;41354;52.990;6.878;2022-07-01T00:39:01;14.90;99.90
55492;DHT22;41354;52.990;6.878;2022-07-01T00:41:27;14.90;99.90
55492;DHT22;41354;52.990;6.878;2022-07-01T00:43:53;14.90;99.90
55492;DHT22;41354;52.990;6.878;2022-07-01T00:46:19;14.90;99.90
55492;DHT22;41354;52.990;6.878;2022-07-01T00:48:44;14.80;99.90
55492;DHT22;41354;52.990;6.878;2022-07-01T00:51:10;14.90;99.90
55492;DHT22;41354;52.990;6.878;2022-07-01T00:53:36;14.90;99.90
55492;DHT22;41354;52.990;6.878;2022-07-01T00:56:02;14.90;99.90
55492;DHT22;41354;52.990;6.878;2022-07-01T00:58:28;15.00;99.90
55492;DHT22;41354;52.990;6.878;2022-07-01T01:00:56;15.00;99.90
55492;DHT22;41354;52.990;6.878;2022-07-01T01:03:21;15.00;99.90
55492;DHT22;41354;52.990;6.878;2022-07-01T01:05:48;15.00;99.90
55492;DHT22;41354;52.990;6.878;2022-07-01T01:08:14;15.00;99.90
55492;DHT22;41354;52.990;6.878;2022-07-01T01:10:41;15.10;99.90
55492;DHT22;41354;52.990;6.878;2022-07-01T01:13:08;15.10;99.90
55492;DHT22;41354;52.990;6.878;2022-07-01T01:15:34;14.90;99.90
55492;DHT22;41354;52.990;6.878;2022-07-01T01:18:00;14.90;99.90
55492;DHT22;41354;52.990;6.878;2022-07-01T01:20:26;14.90;99.90
55492;DHT22;41354;52.990;6.878;2022-07-01T01:22:51;14.80;99.90
55492;DHT22;41354;52.990;6.878;2022-07-01T01:25:17;14.70;99.90
55492;DHT22;41354;52.990;6.878;2022-07-01T01:27:43;14.70;99.90
55492;DHT22;41354;52.990;6.878;2022-07-01T01:30:10;14.70;99.90
55492;DHT22;41354;52.990;6.878;2022-07-01T01:32:37;14.70;99.90
55492;DHT22;41354;52.990;6.878;2022-07-01T01:35:04;14.70;99.90
55492;DHT22;41354;52.990;6.878;2022-07-01T01:37:29;14.70;99.90
55492;DHT22;41354;52.990;6.878;2022-07-01T01:39:55;14.70;99.90
55492;DHT22;41354;52.990;6.878;2022-07-01T01:42:21;14.70;99.90
55492;DHT22;41354;52.990;6.878;2022-07-01T01:44:47;14.70;99.90
55492;DHT22;41354;52.990;6.878;2022-07-01T01:47:13;14.80;99.90
55492;DHT22;41354;52.990;6.878;2022-07-01T01:49:38;14.70;99.90
55492;DHT22;41354;52.990;6.878;2022-07-01T01:52:05;14.80;99.90
55492;DHT22;41354;52.990;6.878;2022-07-01T01:54:32;14.80;99.90
55492;DHT22;41354;52.990;6.878;2022-07-01T01:56:57;14.80;99.90
55492;DHT22;41354;52.990;6.878;2022-07-01T01:59:23;14.90;99.90
55492;DHT22;41354;52.990;6.878;2022-07-01T02:01:48;14.90;99.90
55492;DHT22;41354;52.990;6.878;2022-07-01T02:04:14;15.00;99.90
55492;DHT22;41354;52.990;6.878;2022-07-01T02:06:40;14.90;99.90
55492;DHT22;41354;52.990;6.878;2022-07-01T02:09:08;15.00;99.90
55492;DHT22;41354;52.990;6.878;2022-07-01T02:11:34;15.00;99.90
55492;DHT22;41354;52.990;6.878;2022-07-01T02:14:00;15.10;99.90
55492;DHT22;41354;52.990;6.878;2022-07-01T02:16:26;15.10;99.90
55492;DHT22;41354;52.990;6.878;2022-07-01T02:18:52;15.10;99.90
55492;DHT22;41354;52.990;6.878;2022-07-01T02:21:18;15.10;99.90
55492;DHT22;41354;52.990;6.878;2022-07-01T02:23:43;15.10;99.90
55492;DHT22;41354;52.990;6.878;2022-07-01T02:26:09;15.10;99.90
55492;DHT22;41354;52.990;6.878;2022-07-01T02:28:34;15.10;99.90
55492;DHT22;41354;52.990;6.878;2022-07-01T02:31:00;15.10;99.90
55492;DHT22;41354;52.990;6.878;2022-07-01T02:33:28;15.10;99.90
55492;DHT22;41354;52.990;6.878;2022-07-01T02:35:53;15.10;99.90
55492;DHT22;41354;52.990;6.878;2022-07-01T02:38:19;15.00;99.90
55492;DHT22;41354;52.990;6.878;2022-07-01T02:40:44;15.00;99.90
55492;DHT22;41354;52.990;6.878;2022-07-01T02:43:10;14.90;99.90
55492;DHT22;41354;52.990;6.878;2022-07-01T02:45:36;14.90;99.90
55492;DHT22;41354;52.990;6.878;2022-07-01T02:48:01;14.90;99.90
55492;DHT22;41354;52.990;6.878;2022-07-01T02:50:27;14.80;99.90
55492;DHT22;41354;52.990;6.878;2022-07-01T02:52:53;14.80;99.90
55492;DHT22;41354;52.990;6.878;2022-07-01T02:55:19;14.80;99.90
55492;DHT22;41354;52.990;6.878;2022-07-01T02:57:44;14.80;99.90
55492;DHT22;41354;52.990;6.878;2022-07-01T03:00:12;14.80;99.90
55492;DHT22;41354;52.990;6.878;2022-07-01T03:02:39;14.80;99.90
55492;DHT22;41354;52.990;6.878;2022-07-01T03:05:05;14.70;99.90
55492;DHT22;41354;52.990;6.878;2022-07-01T03:07:31;14.80;99.90
55492;DHT22;41354;52.990;6.878;2022-07-01T03:09:57;14.70;99.90
55492;DHT22;41354;52.990;6.878;2022-07-01T03:12:22;14.60;99.90
55492;DHT22;41354;52.990;6.878;2022-07-01T03:15:04;14.60;99.90
55492;DHT22;41354;52.990;6.878;2022-07-01T03:17:32;14.70;99.90
55492;DHT22;41354;52.990;6.878;2022-07-01T03:19:58;14.60;99.90
55492;DHT22;41354;52.990;6.878;2022-07-01T03:22:27;14.60;99.90
55492;DHT22;41354;52.990;6.878;2022-07-01T03:24:53;14.60;99.90
55492;DHT22;41354;52.990;6.878;2022-07-01T03:27:19;14.60;99.90
55492;DHT22;41354;52.990;6.878;2022-07-01T03:29:46;14.60;99.90
55492;DHT22;41354;52.990;6.878;2022-07-01T03:32:12;14.70;99.90
55492;DHT22;41354;52.990;6.878;2022-07-01T03:34:38;14.70;99.90
55492;DHT22;41354;52.990;6.878;2022-07-01T03:37:05;14.70;99.90
55492;DHT22;41354;52.990;6.878;2022-07-01T03:39:31;14.70;99.90
55492;DHT22;41354;52.990;6.878;2022-07-01T03:41:56;14.70;99.90
55492;DHT22;41354;52.990;6.878;2022-07-01T03:44:22;14.70;99.90
55492;DHT22;41354;52.990;6.878;2022-07-01T03:46:47;14.70;99.90
55492;DHT22;41354;52.990;6.878;2022-07-01T03:49:13;14.70;99.90
55492;DHT22;41354;52.990;6.878;2022-07-01T03:51:38;14.70;99.90
55492;DHT22;41354;52.990;6.878;2022-07-01T03:54:04;14.70;99.90
55492;DHT22;41354;52.990;6.878;2022-07-01T03:56:48;14.80;99.90
55492;DHT22;41354;52.990;6.878;2022-07-01T03:59:14;14.80;99.90
55492;DHT22;41354;52.990;6.878;2022-07-01T04:01:39;14.90;99.90
55492;DHT22;41354;52.990;6.878;2022-07-01T04:04:05;14.90;99.90
55492;DHT22;41354;52.990;6.878;2022-07-01T04:06:30;15.00;99.90
55492;DHT22;41354;52.990;6.878;2022-07-01T04:08:56;15.00;99.90
55492;DHT22;41354;52.990;6.878;2022-07-01T04:11:22;15.00;99.90
55492;DHT22;41354;52.990;6.878;2022-07-01T04:13:47;15.00;99.90
55492;DHT22;41354;52.990;6.878;2022-07-01T04:16:19;15.10;99.90
55492;DHT22;41354;52.990;6.878;2022-07-01T04:18:46;15.10;99.90
55492;DHT22;41354;52.990;6.878;2022-07-01T04:21:12;15.10;99.90
55492;DHT22;41354;52.990;6.878;2022-07-01T04:23:56;15.00;99.90
55492;DHT22;41354;52.990;6.878;2022-07-01T04:26:25;15.00;99.90
55492;DHT22;41354;52.990;6.878;2022-07-01T04:28:51;15.00;99.90
55492;DHT22;41354;52.990;6.878;2022-07-01T04:31:18;15.10;99.90
55492;DHT22;41354;52.990;6.878;2022-07-01T04:33:44;15.10;99.90
55492;DHT22;41354;52.990;6.878;2022-07-01T04:36:10;15.00;99.90
55492;DHT22;41354;52.990;6.878;2022-07-01T04:38:36;15.10;99.90
55492;DHT22;41354;52.990;6.878;2022-07-01T04:41:02;15.00;99.90
55492;DHT22;41354;52.990;6.878;2022-07-01T04:43:46;15.10;99.90
55492;DHT22;41354;52.990;6.878;2022-07-01T04:46:11;15.10;99.90
55492;DHT22;41354;52.990;6.878;2022-07-01T04:48:37;15.10;99.90
55492;DHT22;41354;52.990;6.878;2022-07-01T04:51:02;15.10;99.90
55492;DHT22;41354;52.990;6.878;2022-07-01T04:53:28;15.10;99.90
55492;DHT22;41354;52.990;6.878;2022-07-01T04:55:53;15.10;99.90
55492;DHT22;41354;52.990;6.878;2022-07-01T04:58:19;15.10;99.90
55492;DHT22;41354;52.990;6.878;2022-07-01T05:00:44;15.00;99.90
55492;DHT22;41354;52.990;6.878;2022-07-01T05:03:10;15.00;99.90
55492;DHT22;41354;52.990;6.878;2022-07-01T05:05:36;15.00;99.90
55492;DHT22;41354;52.990;6.878;2022-07-01T05:08:01;15.00;99.90
55492;DHT22;41354;52.990;6.878;2022-07-01T05:10:27;15.00;99.90
55492;DHT22;41354;52.990;6.878;2022-07-01T05:12:54;15.00;99.90
55492;DHT22;41354;52.990;6.878;2022-07-01T05:15:19;15.10;99.90
55492;DHT22;41354;52.990;6.878;2022-07-01T05:17:45;15.00;99.90
55492;DHT22;41354;52.990;6.878;2022-07-01T05:20:29;15.10;99.90
55492;DHT22;41354;52.990;6.878;2022-07-01T05:23:13;15.00;99.90
55492;DHT22;41354;52.990;6.878;2022-07-01T05:25:39;15.10;99.90
55492;DHT22;41354;52.990;6.878;2022-07-01T05:28:04;15.10;99.90
55492;DHT22;41354;52.990;6.878;2022-07-01T05:30:30;15.10;99.90
55492;DHT22;41354;52.990;6.878;2022-07-01T05:32:55;15.10;99.90
55492;DHT22;41354;52.990;6.878;2022-07-01T05:35:22;15.20;99.90
55492;DHT22;41354;52.990;6.878;2022-07-01T05:37:47;15.20;99.90
55492;DHT22;41354;52.990;6.878;2022-07-01T05:40:13;15.20;99.90
55492;DHT22;41354;52.990;6.878;2022-07-01T05:42:39;15.30;99.90
55492;DHT22;41354;52.990;6.878;2022-07-01T05:45:04;15.30;99.90
55492;DHT22;41354;52.990;6.878;2022-07-01T05:47:30;15.30;99.90
55492;DHT22;41354;52.990;6.878;2022-07-01T05:49:56;15.40;99.90
55492;DHT22;41354;52.990;6.878;2022-07-01T05:52:22;15.50;99.90
55492;DHT22;41354;52.990;6.878;2022-07-01T05:54:47;15.50;99.90
55492;DHT22;41354;52.990;6.878;2022-07-01T05:57:13;15.60;99.90
55492;DHT22;41354;52.990;6.878;2022-07-01T05:59:38;15.70;99.90
55492;DHT22;41354;52.990;6.878;2022-07-01T06:02:04;15.80;99.90
55492;DHT22;41354;52.990;6.878;2022-07-01T06:04:30;15.80;99.90
55492;DHT22;41354;52.990;6.878;2022-07-01T06:06:55;15.90;99.90
55492;DHT22;41354;52.990;6.878;2022-07-01T06:09:21;15.90;99.90
55492;DHT22;41354;52.990;6.878;2022-07-01T06:11:46;16.00;99.90
55492;DHT22;41354;52.990;6.878;2022-07-01T06:14:12;16.00;99.90
55492;DHT22;41354;52.990;6.878;2022-07-01T06:16:37;16.00;99.90
55492;DHT22;41354;52.990;6.878;2022-07-01T06:19:04;16.10;99.90
55492;DHT22;41354;52.990;6.878;2022-07-01T06:21:30;16.10;99.90
55492;DHT22;41354;52.990;6.878;2022-07-01T06:23:55;16.00;99.90
55492;DHT22;41354;52.990;6.878;2022-07-01T06:26:21;16.10;99.90
55492;DHT22;41354;52.990;6.878;2022-07-01T06:28:47;16.20;99.90
55492;DHT22;41354;52.990;6.878;2022-07-01T06:31:12;16.20;99.90
55492;DHT22;41354;52.990;6.878;2022-07-01T06:33:38;16.30;99.90
55492;DHT22;41354;52.990;6.878;2022-07-01T06:36:03;16.40;99.90
55492;DHT22;41354;52.990;6.878;2022-07-01T06:38:29;16.50;99.90
55492;DHT22;41354;52.990;6.878;2022-07-01T06:40:55;16.60;99.90
55492;DHT22;41354;52.990;6.878;2022-07-01T06:43:39;16.70;99.90
55492;DHT22;41354;52.990;6.878;2022-07-01T06:46:05;16.80;99.90
55492;DHT22;41354;52.990;6.878;2022-07-01T06:48:31;16.90;99.90
55492;DHT22;41354;52.990;6.878;2022-07-01T06:50:56;17.00;99.90
55492;DHT22;41354;52.990;6.878;2022-07-01T06:53:22;17.10;99.90
55492;DHT22;41354;52.990;6.878;2022-07-01T06:55:47;17.20;99.90
55492;DHT22;41354;52.990;6.878;2022-07-01T06:58:13;17.20;99.90
55492;DHT22;41354;52.990;6.878;2022-07-01T07:00:39;17.30;99.90
55492;DHT22;41354;52.990;6.878;2022-07-01T07:03:04;17.50;99.90
55492;DHT22;41354;52.990;6.878;2022-07-01T07:05:30;17.50;99.90
55492;DHT22;41354;52.990;6.878;2022-07-01T07:07:57;17.50;99.90
55492;DHT22;41354;52.990;6.878;2022-07-01T07:10:23;17.40;99.90
55492;DHT22;41354;52.990;6.878;2022-07-01T07:12:49;17.40;99.90
55492;DHT22;41354;52.990;6.878;2022-07-01T07:15:15;17.30;99.90
55492;DHT22;41354;52.990;6.878;2022-07-01T07:17:41;17.20;99.90
55492;DHT22;41354;52.990;6.878;2022-07-01T07:20:07;17.20;99.90
55492;DHT22;41354;52.990;6.878;2022-07-01T07:22:33;17.10;99.90
55492;DHT22;41354;52.990;6.878;2022-07-01T07:25:04;17.00;99.90
55492;DHT22;41354;52.990;6.878;2022-07-01T07:27:30;17.00;99.90
55492;DHT22;41354;52.990;6.878;2022-07-01T07:29:56;17.20;99.90
55492;DHT22;41354;52.990;6.878;2022-07-01T07:32:21;17.30;99.90
55492;DHT22;41354;52.990;6.878;2022-07-01T07:34:47;17.40;99.90
55492;DHT22;41354;52.990;6.878;2022-07-01T07:37:13;17.40;99.90
55492;DHT22;41354;52.990;6.878;2022-07-01T07:39:38;17.40;99.90
55492;DHT22;41354;52.990;6.878;2022-07-01T07:42:04;17.40;99.90
55492;DHT22;41354;52.990;6.878;2022-07-01T07:44:31;17.60;99.90
55492;DHT22;41354;52.990;6.878;2022-07-01T07:46:57;17.50;99.90
55492;DHT22;41354;52.990;6.878;2022-07-01T07:49:26;17.50;99.90
55492;DHT22;41354;52.990;6.878;2022-07-01T07:51:53;17.60;99.90
55492;DHT22;41354;52.990;6.878;2022-07-01T07:54:19;17.70;99.90
55492;DHT22;41354;52.990;6.878;2022-07-01T07:56:48;17.80;99.90
55492;DHT22;41354;52.990;6.878;2022-07-01T07:59:14;17.70;99.90
55492;DHT22;41354;52.990;6.878;2022-07-01T08:01:40;17.80;99.90
55492;DHT22;41354;52.990;6.878;2022-07-01T08:04:05;17.90;99.90
55492;DHT22;41354;52.990;6.878;2022-07-01T08:06:31;18.00;99.90
55492;DHT22;41354;52.990;6.878;2022-07-01T08:08:57;18.10;99.90
55492;DHT22;41354;52.990;6.878;2022-07-01T08:11:22;18.10;99.90
55492;DHT22;41354;52.990;6.878;2022-07-01T08:13:48;18.20;99.90
55492;DHT22;41354;52.990;6.878;2022-07-01T08:16:13;18.20;99.90
55492;DHT22;41354;52.990;6.878;2022-07-01T08:18:39;18.30;99.90
55492;DHT22;41354;52.990;6.878;2022-07-01T08:21:06;18.30;99.90
55492;DHT22;41354;52.990;6.878;2022-07-01T08:23:32;18.30;99.90
55492;DHT22;41354;52.990;6.878;2022-07-01T08:25:57;18.30;99.90
55492;DHT22;41354;52.990;6.878;2022-07-01T08:28:23;18.50;99.90
55492;DHT22;41354;52.990;6.878;2022-07-01T08:30:48;18.70;99.90
55492;DHT22;41354;52.990;6.878;2022-07-01T08:33:14;18.90;99.90
55492;DHT22;41354;52.990;6.878;2022-07-01T08:35:40;19.10;99.90
55492;DHT22;41354;52.990;6.878;2022-07-01T08:38:05;19.40;99.90
55492;DHT22;41354;52.990;6.878;2022-07-01T08:40:32;19.50;99.90
55492;DHT22;41354;52.990;6.878;2022-07-01T08:43:00;19.40;99.90
55492;DHT22;41354;52.990;6.878;2022-07-01T08:45:27;19.30;99.90
55492;DHT22;41354;52.990;6.878;2022-07-01T08:47:55;19.30;99.90
55492;DHT22;41354;52.990;6.878;2022-07-01T08:50:26;19.40;99.90
55492;DHT22;41354;52.990;6.878;2022-07-01T08:52:53;19.60;99.90
55492;DHT22;41354;52.990;6.878;2022-07-01T08:55:22;19.90;99.90
55492;DHT22;41354;52.990;6.878;2022-07-01T08:57:48;20.10;99.90
55492;DHT22;41354;52.990;6.878;2022-07-01T09:00:15;20.30;99.90
55492;DHT22;41354;52.990;6.878;2022-07-01T09:03:00;20.60;99.90
55492;DHT22;41354;52.990;6.878;2022-07-01T09:05:28;20.80;99.90
55492;DHT22;41354;52.990;6.878;2022-07-01T09:08:01;21.00;99.90
55492;DHT22;41354;52.990;6.878;2022-07-01T09:10:28;20.90;99.90
55492;DHT22;41354;52.990;6.878;2022-07-01T09:12:57;21.00;99.90
55492;DHT22;41354;52.990;6.878;2022-07-01T09:15:30;21.20;99.90
55492;DHT22;41354;52.990;6.878;2022-07-01T09:20:35;21.70;99.90
55492;DHT22;41354;52.990;6.878;2022-07-01T09:23:09;21.50;99.90
55492;DHT22;41354;52.990;6.878;2022-07-01T09:25:43;21.20;99.90
55492;DHT22;41354;52.990;6.878;2022-07-01T09:28:16;21.10;99.90
55492;DHT22;41354;52.990;6.878;2022-07-01T09:30:45;21.20;99.90
55492;DHT22;41354;52.990;6.878;2022-07-01T09:35:42;21.50;99.90
55492;DHT22;41354;52.990;6.878;2022-07-01T09:38:12;21.50;99.90
55492;DHT22;41354;52.990;6.878;2022-07-01T09:40:55;21.50;99.90
55492;DHT22;41354;52.990;6.878;2022-07-01T09:43:25;21.40;99.90
55492;DHT22;41354;52.990;6.878;2022-07-01T09:46:07;21.30;99.90
55492;DHT22;41354;52.990;6.878;2022-07-01T09:51:02;20.90;99.90
55492;DHT22;41354;52.990;6.878;2022-07-01T09:53:28;20.70;99.90
55492;DHT22;41354;52.990;6.878;2022-07-01T09:55:54;20.70;99.90
55492;DHT22;41354;52.990;6.878;2022-07-01T09:58:19;20.70;99.90
55492;DHT22;41354;52.990;6.878;2022-07-01T10:00:45;20.80;99.90
55492;DHT22;41354;52.990;6.878;2022-07-01T10:03:12;21.00;99.90
55492;DHT22;41354;52.990;6.878;2022-07-01T10:05:42;21.20;99.90
55492;DHT22;41354;52.990;6.878;2022-07-01T10:11:06;21.30;99.90
55492;DHT22;41354;52.990;6.878;2022-07-01T10:13:40;21.30;99.90
55492;DHT22;41354;52.990;6.878;2022-07-01T10:16:08;21.60;99.90
55492;DHT22;41354;52.990;6.878;2022-07-01T10:18:34;21.80;99.90
55492;DHT22;41354;52.990;6.878;2022-07-01T10:21:00;21.80;99.90
55492;DHT22;41354;52.990;6.878;2022-07-01T10:23:41;21.50;99.90
55492;DHT22;41354;52.990;6.878;2022-07-01T10:26:07;21.40;99.90
55492;DHT22;41354;52.990;6.878;2022-07-01T10:28:40;21.40;99.90
55492;DHT22;41354;52.990;6.878;2022-07-01T10:31:13;21.80;99.90
55492;DHT22;41354;52.990;6.878;2022-07-01T10:33:57;22.20;99.90
55492;DHT22;41354;52.990;6.878;2022-07-01T10:36:33;22.40;99.90
55492;DHT22;41354;52.990;6.878;2022-07-01T10:41:39;23.10;99.90
55492;DHT22;41354;52.990;6.878;2022-07-01T10:44:13;23.50;99.90
55492;DHT22;41354;52.990;6.878;2022-07-01T10:46:47;23.60;99.90
55492;DHT22;41354;52.990;6.878;2022-07-01T10:49:20;23.70;99.60
55492;DHT22;41354;52.990;6.878;2022-07-01T10:51:57;23.90;98.30
55492;DHT22;41354;52.990;6.878;2022-07-01T11:02:39;23.70;91.10
55492;DHT22;41354;52.990;6.878;2022-07-01T11:05:10;23.40;94.90
55492;DHT22;41354;52.990;6.878;2022-07-01T11:07:38;23.20;93.00
55492;DHT22;41354;52.990;6.878;2022-07-01T11:10:06;23.40;95.10
55492;DHT22;41354;52.990;6.878;2022-07-01T11:12:32;24.00;96.30
55492;DHT22;41354;52.990;6.878;2022-07-01T11:14:59;24.50;95.10
55492;DHT22;41354;52.990;6.878;2022-07-01T11:17:27;24.70;92.40
55492;DHT22;41354;52.990;6.878;2022-07-01T11:19:58;24.80;91.00
55492;DHT22;41354;52.990;6.878;2022-07-01T11:22:29;24.80;88.80
55492;DHT22;41354;52.990;6.878;2022-07-01T11:24:56;24.70;87.60
55492;DHT22;41354;52.990;6.878;2022-07-01T11:27:22;24.60;89.40
55492;DHT22;41354;52.990;6.878;2022-07-01T11:29:52;24.80;88.80
55492;DHT22;41354;52.990;6.878;2022-07-01T11:32:29;24.90;88.40
55492;DHT22;41354;52.990;6.878;2022-07-01T11:34:56;25.20;89.60
55492;DHT22;41354;52.990;6.878;2022-07-01T11:37:22;25.50;90.00
55492;DHT22;41354;52.990;6.878;2022-07-01T11:40:07;25.40;88.30
55492;DHT22;41354;52.990;6.878;2022-07-01T11:42:34;25.40;88.40
55492;DHT22;41354;52.990;6.878;2022-07-01T11:44:59;25.50;87.70
55492;DHT22;41354;52.990;6.878;2022-07-01T11:47:26;25.60;87.00
55492;DHT22;41354;52.990;6.878;2022-07-01T11:49:52;26.00;87.10
55492;DHT22;41354;52.990;6.878;2022-07-01T11:52:19;26.30;87.60
55492;DHT22;41354;52.990;6.878;2022-07-01T11:54:48;26.30;83.30
55492;DHT22;41354;52.990;6.878;2022-07-01T11:57:25;26.10;79.40
55492;DHT22;41354;52.990;6.878;2022-07-01T11:59:53;25.90;79.50
55492;DHT22;41354;52.990;6.878;2022-07-01T12:02:21;26.10;80.20
55492;DHT22;41354;52.990;6.878;2022-07-01T12:04:48;26.20;81.20
55492;DHT22;41354;52.990;6.878;2022-07-01T12:07:15;26.10;76.40
55492;DHT22;41354;52.990;6.878;2022-07-01T12:09:41;25.60;74.70
55492;DHT22;41354;52.990;6.878;2022-07-01T12:12:15;25.20;76.30
55492;DHT22;41354;52.990;6.878;2022-07-01T12:14:48;24.80;74.40
55492;DHT22;41354;52.990;6.878;2022-07-01T12:17:16;24.50;77.20
55492;DHT22;41354;52.990;6.878;2022-07-01T12:19:43;24.60;77.00
55492;DHT22;41354;52.990;6.878;2022-07-01T12:22:11;24.70;76.30
55492;DHT22;41354;52.990;6.878;2022-07-01T12:24:38;24.50;77.00
55492;DHT22;41354;52.990;6.878;2022-07-01T12:27:05;24.30;77.70
55492;DHT22;41354;52.990;6.878;2022-07-01T12:32:26;24.10;76.90
55492;DHT22;41354;52.990;6.878;2022-07-01T12:34:58;23.90;75.90
55492;DHT22;41354;52.990;6.878;2022-07-01T12:37:34;23.40;76.20
55492;DHT22;41354;52.990;6.878;2022-07-01T12:40:20;23.20;79.40
55492;DHT22;41354;52.990;6.878;2022-07-01T12:42:46;23.80;79.40
55492;DHT22;41354;52.990;6.878;2022-07-01T12:45:14;24.00;78.40
55492;DHT22;41354;52.990;6.878;2022-07-01T12:47:44;23.90;77.20
55492;DHT22;41354;52.990;6.878;2022-07-01T12:52:37;23.50;77.20
55492;DHT22;41354;52.990;6.878;2022-07-01T12:55:39;23.30;80.60
55492;DHT22;41354;52.990;6.878;2022-07-01T12:58:10;23.40;77.60
55492;DHT22;41354;52.990;6.878;2022-07-01T13:00:38;23.10;78.70
55492;DHT22;41354;52.990;6.878;2022-07-01T13:03:05;22.80;78.80
55492;DHT22;41354;52.990;6.878;2022-07-01T13:05:33;22.80;82.00
55492;DHT22;41354;52.990;6.878;2022-07-01T13:07:59;23.00;80.30
55492;DHT22;41354;52.990;6.878;2022-07-01T13:10:24;23.30;79.00
55492;DHT22;41354;52.990;6.878;2022-07-01T13:12:50;23.30;78.20
55492;DHT22;41354;52.990;6.878;2022-07-01T13:15:17;23.20;77.80
55492;DHT22;41354;52.990;6.878;2022-07-01T13:17:44;23.30;78.50
55492;DHT22;41354;52.990;6.878;2022-07-01T13:20:11;23.20;76.90
55492;DHT22;41354;52.990;6.878;2022-07-01T13:22:37;22.90;76.40
55492;DHT22;41354;52.990;6.878;2022-07-01T13:25:04;22.40;77.50
55492;DHT22;41354;52.990;6.878;2022-07-01T13:27:29;22.10;78.10
55492;DHT22;41354;52.990;6.878;2022-07-01T13:29:55;22.10;79.70
55492;DHT22;41354;52.990;6.878;2022-07-01T13:32:22;22.20;78.30
55492;DHT22;41354;52.990;6.878;2022-07-01T13:34:47;22.30;78.60
55492;DHT22;41354;52.990;6.878;2022-07-01T13:37:13;22.50;77.20
55492;DHT22;41354;52.990;6.878;2022-07-01T13:39:38;23.20;79.10
55492;DHT22;41354;52.990;6.878;2022-07-01T13:42:04;23.30;77.60
55492;DHT22;41354;52.990;6.878;2022-07-01T13:44:30;23.10;78.00
55492;DHT22;41354;52.990;6.878;2022-07-01T13:46:56;23.00;78.90
55492;DHT22;41354;52.990;6.878;2022-07-01T13:49:21;22.60;75.70
55492;DHT22;41354;52.990;6.878;2022-07-01T13:51:47;22.40;76.00
55492;DHT22;41354;52.990;6.878;2022-07-01T13:54:13;22.30;75.50
55492;DHT22;41354;52.990;6.878;2022-07-01T13:56:38;22.20;76.90
55492;DHT22;41354;52.990;6.878;2022-07-01T13:59:04;22.20;77.10
55492;DHT22;41354;52.990;6.878;2022-07-01T14:01:30;22.40;77.50
55492;DHT22;41354;52.990;6.878;2022-07-01T14:03:56;22.60;78.60
55492;DHT22;41354;52.990;6.878;2022-07-01T14:06:22;22.80;77.50
55492;DHT22;41354;52.990;6.878;2022-07-01T14:08:48;22.80;76.20
55492;DHT22;41354;52.990;6.878;2022-07-01T14:11:13;22.40;76.10
55492;DHT22;41354;52.990;6.878;2022-07-01T14:13:39;22.30;77.60
55492;DHT22;41354;52.990;6.878;2022-07-01T14:16:06;22.30;78.80
55492;DHT22;41354;52.990;6.878;2022-07-01T14:18:33;22.40;80.70
55492;DHT22;41354;52.990;6.878;2022-07-01T14:20:59;22.40;78.30
55492;DHT22;41354;52.990;6.878;2022-07-01T14:23:25;22.50;79.60
55492;DHT22;41354;52.990;6.878;2022-07-01T14:25:50;23.00;79.70
55492;DHT22;41354;52.990;6.878;2022-07-01T14:28:16;23.30;78.80
55492;DHT22;41354;52.990;6.878;2022-07-01T14:30:41;23.80;80.50
55492;DHT22;41354;52.990;6.878;2022-07-01T14:33:07;23.80;78.50
55492;DHT22;41354;52.990;6.878;2022-07-01T14:35:33;23.60;76.10
55492;DHT22;41354;52.990;6.878;2022-07-01T14:37:58;23.70;77.80
55492;DHT22;41354;52.990;6.878;2022-07-01T14:40:24;24.00;77.10
55492;DHT22;41354;52.990;6.878;2022-07-01T14:42:50;23.90;75.70
55492;DHT22;41354;52.990;6.878;2022-07-01T14:45:16;23.60;76.60
55492;DHT22;41354;52.990;6.878;2022-07-01T14:47:42;23.40;77.50
55492;DHT22;41354;52.990;6.878;2022-07-01T14:50:08;23.10;77.00
55492;DHT22;41354;52.990;6.878;2022-07-01T14:52:34;23.10;78.80
55492;DHT22;41354;52.990;6.878;2022-07-01T14:55:00;23.90;79.20
55492;DHT22;41354;52.990;6.878;2022-07-01T14:57:25;24.80;76.20
55492;DHT22;41354;52.990;6.878;2022-07-01T14:59:51;25.10;75.50
55492;DHT22;41354;52.990;6.878;2022-07-01T15:02:17;24.80;75.40
55492;DHT22;41354;52.990;6.878;2022-07-01T15:04:43;24.50;75.60
55492;DHT22;41354;52.990;6.878;2022-07-01T15:07:09;24.20;75.10
55492;DHT22;41354;52.990;6.878;2022-07-01T15:09:35;24.00;77.50
55492;DHT22;41354;52.990;6.878;2022-07-01T15:12:00;23.90;78.00
55492;DHT22;41354;52.990;6.878;2022-07-01T15:14:26;23.80;76.90
55492;DHT22;41354;52.990;6.878;2022-07-01T15:16:51;24.30;77.30
55492;DHT22;41354;52.990;6.878;2022-07-01T15:19:17;24.80;74.80
55492;DHT22;41354;52.990;6.878;2022-07-01T15:21:43;24.80;72.80
55492;DHT22;41354;52.990;6.878;2022-07-01T15:24:09;24.50;72.00
55492;DHT22;41354;52.990;6.878;2022-07-01T15:26:34;23.80;72.50
55492;DHT22;41354;52.990;6.878;2022-07-01T15:29:00;23.20;74.20
55492;DHT22;41354;52.990;6.878;2022-07-01T15:31:25;22.80;74.80
55492;DHT22;41354;52.990;6.878;2022-07-01T15:33:52;22.30;75.00
55492;DHT22;41354;52.990;6.878;2022-07-01T15:36:19;22.00;76.40
55492;DHT22;41354;52.990;6.878;2022-07-01T15:38:45;21.80;77.20
55492;DHT22;41354;52.990;6.878;2022-07-01T15:41:10;21.80;78.50
55492;DHT22;41354;52.990;6.878;2022-07-01T15:43:36;21.80;78.00
55492;DHT22;41354;52.990;6.878;2022-07-01T15:46:02;21.90;78.60
55492;DHT22;41354;52.990;6.878;2022-07-01T15:48:27;22.00;78.00
55492;DHT22;41354;52.990;6.878;2022-07-01T15:50:53;22.20;78.60
55492;DHT22;41354;52.990;6.878;2022-07-01T15:53:20;22.20;78.20
55492;DHT22;41354;52.990;6.878;2022-07-01T15:55:48;22.50;79.80